createdAt,value
2018-12-06T00:01:38.528Z,20.13
2018-12-06T00:06:56.012Z,20.47
2018-12-06T00:12:13.478Z,24.93
2018-12-06T00:17:30.942Z,17.82
2018-12-06T00:22:48.410Z,19.07
2018-12-06T00:28:05.906Z,22.20
2018-12-06T00:33:23.388Z,19.77
2018-12-06T00:38:40.882Z,20.63
2018-12-06T00:43:58.473Z,20.33
2018-12-06T00:49:16.055Z,18.60
2018-12-06T00:54:33.595Z,21.83
2018-12-06T00:59:51.075Z,16.27
2018-12-06T01:05:08.721Z,17.67
2018-12-06T01:10:26.201Z,18.47
2018-12-06T01:15:43.686Z,14.13
2018-12-06T01:21:01.184Z,15.23
2018-12-06T01:26:18.898Z,17.47
2018-12-06T01:31:36.405Z,15.63
2018-12-06T01:36:53.880Z,16.20
2018-12-06T01:42:11.621Z,16.73
2018-12-06T01:47:29.150Z,17.20
2018-12-06T01:52:46.700Z,14.47
2018-12-06T01:58:04.314Z,17.17
2018-12-06T02:03:21.776Z,16.90
2018-12-06T02:08:39.253Z,16.70
2018-12-06T02:13:56.722Z,16.60
2018-12-06T02:19:14.228Z,18.73
2018-12-06T02:24:31.908Z,16.17
2018-12-06T02:29:55.969Z,20.07
2018-12-06T02:35:13.457Z,21.05
2018-12-06T02:40:31.007Z,22.32
2018-12-06T02:45:48.478Z,22.53
2018-12-06T02:51:06.047Z,18.20
2018-12-06T02:56:23.509Z,17.03
2018-12-06T03:01:41.055Z,19.90
2018-12-06T03:06:58.552Z,20.73
2018-12-06T03:12:16.025Z,26.45
2018-12-06T03:17:33.501Z,24.13
2018-12-06T03:22:50.968Z,23.02
2018-12-06T03:28:08.443Z,32.33
2018-12-06T03:33:26.726Z,25.53
2018-12-06T03:38:44.277Z,25.80
2018-12-06T03:44:01.777Z,27.37
2018-12-06T03:49:19.258Z,29.10
2018-12-06T03:54:36.790Z,25.60
2018-12-06T03:59:54.357Z,27.93
2018-12-06T04:05:11.848Z,25.87
2018-12-06T04:10:29.469Z,28.77
2018-12-06T04:15:46.956Z,29.20
2018-12-06T04:21:04.448Z,33.33
2018-12-06T04:26:22.208Z,35.85
2018-12-06T04:31:39.685Z,31.47
2018-12-06T04:36:57.167Z,32.60
2018-12-06T04:42:14.697Z,31.73
2018-12-06T04:47:32.186Z,37.97
2018-12-06T04:52:49.802Z,31.60
2018-12-06T04:58:07.319Z,29.83
2018-12-06T05:03:24.889Z,30.27
2018-12-06T05:08:43.289Z,25.57
2018-12-06T05:14:00.797Z,27.47
2018-12-06T05:19:18.789Z,34.57
2018-12-06T05:24:36.394Z,36.17
2018-12-06T05:29:53.875Z,33.17
2018-12-06T05:35:11.333Z,37.17
2018-12-06T05:40:28.808Z,43.73
2018-12-06T05:45:46.268Z,47.20
2018-12-06T05:51:03.741Z,45.07
2018-12-06T05:56:22.148Z,34.93
2018-12-06T06:01:39.641Z,38.57
2018-12-06T06:06:59.103Z,34.57
2018-12-06T06:12:16.578Z,36.73
2018-12-06T06:17:34.055Z,32.27
2018-12-06T06:22:51.528Z,32.30
2018-12-06T06:28:08.995Z,34.87
2018-12-06T06:33:26.483Z,34.27
2018-12-06T06:38:43.956Z,29.40
2018-12-06T06:44:01.560Z,27.30
2018-12-06T06:49:19.053Z,27.50
2018-12-06T06:54:36.589Z,29.80
2018-12-06T06:59:54.536Z,31.87
2018-12-06T07:05:12.055Z,32.60
2018-12-06T07:10:29.516Z,31.23
2018-12-06T07:15:46.990Z,36.17
2018-12-06T07:21:04.549Z,35.67
2018-12-06T07:26:22.013Z,37.03
2018-12-06T07:31:39.464Z,37.37
2018-12-06T07:36:56.982Z,42.13
2018-12-06T07:42:14.478Z,42.30
2018-12-06T07:47:31.964Z,47.38
2018-12-06T07:52:49.475Z,46.47
2018-12-06T07:58:06.948Z,57.33
2018-12-06T08:03:24.433Z,60.67
2018-12-06T08:08:41.952Z,57.87
2018-12-06T08:13:59.412Z,58.70
2018-12-06T08:19:17.781Z,62.23
2018-12-06T08:24:35.265Z,63.53
2018-12-06T08:29:52.774Z,77.60
2018-12-06T08:35:10.292Z,71.17
2018-12-06T08:40:27.773Z,68.20
2018-12-06T08:45:45.237Z,72.03
2018-12-06T08:51:02.971Z,72.10
2018-12-06T08:56:20.537Z,86.47
2018-12-06T09:01:38.026Z,78.00
2018-12-06T09:06:55.497Z,80.57
2018-12-06T09:12:12.990Z,61.13
2018-12-06T09:17:30.683Z,42.60
2018-12-06T09:22:48.478Z,37.10
2018-12-06T09:28:06.181Z,36.60
2018-12-06T09:33:23.707Z,36.47
2018-12-06T09:38:41.234Z,39.87
2018-12-06T09:43:58.881Z,54.23
2018-12-06T09:49:16.391Z,54.63
2018-12-06T09:54:33.877Z,45.37
2018-12-06T09:59:51.351Z,52.27
2018-12-06T10:05:09.069Z,58.63
2018-12-06T10:10:26.675Z,65.07
2018-12-06T10:15:44.176Z,67.20
2018-12-06T10:21:01.654Z,79.77
2018-12-06T10:26:19.123Z,84.33
2018-12-06T10:31:36.593Z,88.47
2018-12-06T10:36:54.067Z,68.63
2018-12-06T10:42:11.561Z,72.57
2018-12-06T10:47:29.125Z,79.87
2018-12-06T10:52:46.683Z,67.50
2018-12-06T10:58:04.480Z,76.23
2018-12-06T11:03:24.909Z,67.57
2018-12-06T11:08:42.407Z,59.10
2018-12-06T11:14:00.429Z,52.37
2018-12-06T11:19:17.943Z,59.07
2018-12-06T11:24:35.418Z,50.03
2018-12-06T11:29:52.992Z,48.07
2018-12-06T11:35:12.271Z,55.52
2018-12-06T11:40:29.762Z,40.33
2018-12-06T11:45:47.358Z,54.47
2018-12-06T11:51:04.989Z,48.70
2018-12-06T11:56:22.467Z,48.10
2018-12-06T12:01:39.967Z,37.98
2018-12-06T12:06:57.478Z,34.77
2018-12-06T12:12:14.973Z,41.63
2018-12-06T12:17:32.556Z,45.93
2018-12-06T12:22:50.922Z,35.97
2018-12-06T12:28:08.432Z,35.50
2018-12-06T12:33:25.918Z,34.83
2018-12-06T12:38:43.387Z,37.67
2018-12-06T12:44:00.899Z,28.97
2018-12-06T12:49:18.368Z,34.97
2018-12-06T12:54:36.786Z,30.57
2018-12-06T12:59:54.265Z,33.38
2018-12-06T13:05:12.010Z,30.80
2018-12-06T13:10:30.355Z,28.03
2018-12-06T13:15:48.134Z,20.20
2018-12-06T13:21:05.702Z,21.13
2018-12-06T13:26:23.402Z,25.60
2018-12-06T13:31:40.978Z,26.40
2018-12-06T13:36:58.628Z,37.97
2018-12-06T13:42:23.375Z,26.23
2018-12-06T13:47:35.673Z,21.07
2018-12-06T13:52:53.157Z,28.00
2018-12-06T13:58:10.759Z,27.90
2018-12-06T14:03:28.305Z,22.77
2018-12-06T14:08:45.783Z,24.30
2018-12-06T14:14:03.341Z,25.67
2018-12-06T14:19:21.060Z,28.23
2018-12-06T14:24:38.540Z,27.50
2018-12-06T14:29:56.051Z,25.63
2018-12-06T14:35:13.558Z,25.97
2018-12-06T14:40:31.094Z,27.67
2018-12-06T14:45:48.994Z,22.37
2018-12-06T14:51:06.535Z,30.17
2018-12-06T14:56:24.045Z,34.77
2018-12-06T15:01:41.554Z,23.07
2018-12-06T15:07:00.047Z,25.80
2018-12-06T15:12:17.564Z,21.80
2018-12-06T15:17:35.054Z,25.27
2018-12-06T15:22:52.555Z,19.93
2018-12-06T15:28:10.078Z,20.53
2018-12-06T15:33:27.719Z,20.20
2018-12-06T15:38:45.931Z,19.77
2018-12-06T15:44:03.541Z,24.93
2018-12-06T15:49:21.031Z,22.03
2018-12-06T15:54:39.130Z,19.17
2018-12-06T15:59:56.799Z,20.20
2018-12-06T16:05:14.587Z,20.37
2018-12-06T16:10:32.096Z,20.83
2018-12-06T16:15:50.931Z,18.07
2018-12-06T16:21:08.754Z,21.07
2018-12-06T16:26:26.364Z,18.87
2018-12-06T16:31:43.927Z,15.80
2018-12-06T16:37:01.516Z,20.03
2018-12-06T16:42:19.737Z,16.90
2018-12-06T16:47:37.657Z,19.00
2018-12-06T16:52:55.134Z,15.30
2018-12-06T16:58:12.636Z,17.17
2018-12-06T17:03:30.167Z,14.17
2018-12-06T17:08:50.619Z,13.23
2018-12-06T17:14:08.142Z,19.10
2018-12-06T17:19:26.142Z,17.00
2018-12-06T17:24:43.619Z,16.47
2018-12-06T17:30:01.595Z,13.33
2018-12-06T17:35:19.155Z,19.77
2018-12-06T17:40:36.618Z,14.93
2018-12-06T17:45:54.136Z,19.47
2018-12-06T17:51:13.184Z,15.73
2018-12-06T17:56:30.669Z,12.37
2018-12-06T18:01:48.154Z,15.47
2018-12-06T18:07:05.625Z,12.47
2018-12-06T18:12:23.118Z,16.00
2018-12-06T18:17:40.593Z,19.47
2018-12-06T18:23:56.296Z,17.57
2018-12-06T18:29:13.769Z,19.30
2018-12-06T18:34:31.245Z,14.70
2018-12-06T18:39:48.736Z,15.33
2018-12-06T18:45:06.689Z,15.87
2018-12-06T18:50:24.166Z,16.47
2018-12-06T18:55:41.715Z,18.17
2018-12-06T19:00:59.196Z,17.93
2018-12-06T19:06:16.728Z,19.80
2018-12-06T19:11:34.289Z,22.03
2018-12-06T19:16:51.810Z,20.30
2018-12-06T19:22:09.305Z,19.27
2018-12-06T19:27:26.838Z,23.43
2018-12-06T19:32:44.335Z,20.13
2018-12-06T19:38:02.044Z,23.27
2018-12-06T19:43:20.874Z,31.30
2018-12-06T19:48:38.588Z,24.13
2018-12-06T19:53:56.106Z,24.00
2018-12-06T19:59:13.591Z,26.73
2018-12-06T20:04:31.463Z,24.00
2018-12-06T20:09:48.993Z,28.67
2018-12-06T20:15:07.593Z,27.00
2018-12-06T20:20:25.086Z,29.83
2018-12-06T20:25:42.592Z,26.70
2018-12-06T20:31:00.093Z,23.13
2018-12-06T20:36:17.613Z,23.33
2018-12-06T20:41:35.116Z,20.57
2018-12-06T20:46:52.637Z,23.10
2018-12-06T20:52:10.172Z,24.53
2018-12-06T20:57:27.648Z,28.47
2018-12-06T21:02:45.130Z,26.97
2018-12-06T21:08:02.598Z,26.00
2018-12-06T21:13:20.341Z,25.13
2018-12-06T21:18:37.840Z,29.73
2018-12-06T21:23:55.817Z,25.13
2018-12-06T21:29:13.325Z,23.63
2018-12-06T21:34:30.809Z,26.53
2018-12-06T21:39:48.425Z,21.83
2018-12-06T21:45:06.237Z,26.93
2018-12-06T21:50:23.777Z,19.53
2018-12-06T21:55:42.129Z,24.07
2018-12-06T22:00:59.602Z,19.00
2018-12-06T22:06:17.074Z,18.53
2018-12-06T22:11:34.549Z,13.93
2018-12-06T22:16:52.033Z,16.33
2018-12-06T22:22:09.506Z,12.80
2018-12-06T22:27:27.014Z,13.43
2018-12-06T22:32:44.498Z,12.03
2018-12-06T22:38:01.998Z,22.13
2018-12-06T22:43:19.465Z,14.73
2018-12-06T22:48:36.953Z,18.60
2018-12-06T22:53:54.415Z,14.13
2018-12-06T22:59:12.590Z,16.83
2018-12-06T23:04:30.063Z,18.63
2018-12-06T23:09:47.561Z,15.77
2018-12-06T23:15:05.449Z,17.15
2018-12-06T23:20:22.917Z,17.55
2018-12-06T23:25:40.397Z,19.23
2018-12-06T23:30:57.875Z,19.37
2018-12-06T23:36:15.346Z,19.60
2018-12-06T23:41:32.837Z,16.87
2018-12-06T23:46:50.323Z,13.73
2018-12-06T23:52:07.803Z,16.83
2018-12-06T23:57:25.358Z,18.23
